»·PEaware :: WAT169 KLAS-KSNA

WAT169 :: KLAS-KSNA

FLIGHT INFORMATION

Flight Status: Arrived
Operator:
Walker Air Transport
More flights by this operator :: More flights under this callsign
Pilot: Marty P. (27464)
Aircraft: BEECH AIRCRAFT SUPER KING AIR 350
(B350)
More flights by this aircraft type
Origin: KLAS McCarran Intl
United States
Destination: KSNA John Wayne-Orange Co
United States
More flights between these airports :: More routes between these airports
Route: +LAS V538 GFS HEC KAYOH7
File this flight plan on PilotEdge
Remarks:
Altitude:
(Current/Filed)
26,000ft
Speed:
(Current/Filed)
480kts
Departed: 11-Oct-20 11:43 AM
Arrived: 11-Oct-20 12:39 PM
Distance/Time
Traveled:
197nm/0:56
Distance/Time
To Go:
Arrived

Flight Plot

Page will automatically refresh every two minutes.

Flight plan parsing failed; only flown route is shown


Map Options




Map Legend


Flown Route
Filed Route
Departure Airport
Arrival Airport
Navaid (VOR, NDB)
Fix

Horizontal Profiles

Position Reports

Time Latitude Longitude Heading Altitude Ground
Speed
11-Oct-20 11:01 36.082660 -115.170038 89 2166ft 0kts
11-Oct-20 11:02 36.082660 -115.170038 89 2166ft 0kts
11-Oct-20 11:03 36.082660 -115.170038 89 2166ft 0kts
11-Oct-20 11:04 36.082660 -115.170038 89 2166ft 0kts
11-Oct-20 11:05 36.082660 -115.170038 89 2166ft 0kts
11-Oct-20 11:06 36.082660 -115.170038 89 2166ft 0kts
11-Oct-20 11:07 36.082660 -115.170038 89 2166ft 0kts
11-Oct-20 11:08 36.082660 -115.170038 88 2166ft 0kts
11-Oct-20 11:09 36.082660 -115.170038 88 2166ft 0kts
11-Oct-20 11:10 36.082660 -115.170038 88 2166ft 0kts
11-Oct-20 11:11 36.082660 -115.170038 88 2166ft 0kts
11-Oct-20 11:12 36.082660 -115.170038 88 2166ft 0kts
11-Oct-20 11:13 36.082660 -115.170038 88 2166ft 0kts
11-Oct-20 11:14 36.082660 -115.170038 88 2166ft 0kts
11-Oct-20 11:15 36.082118 -115.170165 200 2167ft 8kts
11-Oct-20 11:16 36.081755 -115.170623 0 2169ft 0kts
11-Oct-20 11:17 36.081755 -115.170623 0 2169ft 0kts
11-Oct-20 11:18 36.081755 -115.170623 0 2169ft 0kts
11-Oct-20 11:19 36.081755 -115.170623 0 2169ft 0kts
11-Oct-20 11:20 36.081755 -115.170623 0 2169ft 0kts
11-Oct-20 11:21 36.081755 -115.170623 0 2169ft 0kts
11-Oct-20 11:22 36.081755 -115.170623 0 2169ft 0kts
11-Oct-20 11:23 36.081755 -115.170623 0 2169ft 0kts
11-Oct-20 11:24 36.081755 -115.170623 0 2169ft 0kts
11-Oct-20 11:25 36.081755 -115.170623 0 2169ft 0kts
11-Oct-20 11:26 36.081755 -115.170623 0 2169ft 0kts
11-Oct-20 11:27 36.081755 -115.170623 0 2169ft 0kts
11-Oct-20 11:28 36.081755 -115.170623 0 2169ft 0kts
11-Oct-20 11:29 36.081755 -115.170623 0 2169ft 0kts
11-Oct-20 11:30 36.081755 -115.170623 0 2169ft 0kts
11-Oct-20 11:31 36.081795 -115.170566 75 2168ft 3kts
11-Oct-20 11:32 36.081481 -115.169901 89 2167ft 0kts
11-Oct-20 11:33 36.081481 -115.169900 89 2167ft 0kts
11-Oct-20 11:34 36.081481 -115.169900 89 2167ft 0kts
11-Oct-20 11:36 36.081108 -115.169503 190 2166ft 9kts
11-Oct-20 11:37 36.078308 -115.171043 207 2176ft 2kts
11-Oct-20 11:38 36.077032 -115.171222 180 2178ft 9kts
11-Oct-20 11:39 36.075867 -115.170889 165 2183ft 0kts
11-Oct-20 11:40 36.075867 -115.170889 165 2183ft 0kts
11-Oct-20 11:41 36.075867 -115.170889 165 2183ft 0kts
11-Oct-20 11:42 36.075816 -115.170869 155 2183ft 0kts
11-Oct-20 11:43 36.077673 -115.169044 25 2173ft 48kts
11-Oct-20 11:44 36.107883 -115.162797 320 2485ft 153kts
11-Oct-20 11:45 36.101764 -115.216270 251 3480ft 190kts
11-Oct-20 11:46 36.083921 -115.277420 251 5430ft 187kts
11-Oct-20 11:47 36.052588 -115.328057 176 6676ft 210kts
11-Oct-20 11:48 35.997885 -115.321979 172 8501ft 200kts
11-Oct-20 11:49 35.942160 -115.312529 174 11503ft 203kts
11-Oct-20 11:50 35.885256 -115.302886 175 14320ft 214kts
11-Oct-20 11:51 35.825753 -115.292824 177 17170ft 222kts
11-Oct-20 11:52 35.763974 -115.282406 177 19959ft 229kts
11-Oct-20 11:52 35.711330 -115.273530 175 22238ft 234kts
11-Oct-20 11:53 35.639851 -115.261509 174 23090ft 301kts
11-Oct-20 11:54 35.548655 -115.246189 174 23366ft 344kts
11-Oct-20 11:55 35.470272 -115.233027 174 26093ft 308kts
11-Oct-20 11:56 35.377490 -115.217518 173 26056ft 361kts
11-Oct-20 11:57 35.274319 -115.200302 173 26044ft 386kts
11-Oct-20 11:58 35.166203 -115.185309 191 25982ft 387kts
11-Oct-20 11:59 35.107525 -115.271519 258 26034ft 335kts
11-Oct-20 12:00 35.079620 -115.379111 260 26038ft 331kts
11-Oct-20 12:01 35.051695 -115.488240 259 26029ft 345kts
11-Oct-20 12:02 35.022504 -115.601782 259 26075ft 352kts
11-Oct-20 12:03 34.993072 -115.715796 259 26123ft 353kts
11-Oct-20 12:04 34.963341 -115.830471 259 26116ft 355kts
11-Oct-20 12:05 34.933947 -115.943328 259 26109ft 343kts
11-Oct-20 12:06 34.905413 -116.052490 259 26117ft 334kts
11-Oct-20 12:07 34.877194 -116.159977 259 26114ft 336kts
11-Oct-20 12:08 34.848541 -116.268670 259 26100ft 338kts
11-Oct-20 12:09 34.819658 -116.377790 259 26083ft 339kts
11-Oct-20 12:10 34.782004 -116.482812 229 26101ft 356kts
11-Oct-20 12:11 34.711646 -116.568183 231 25302ft 357kts
11-Oct-20 12:12 34.643848 -116.651427 230 23761ft 338kts
11-Oct-20 12:13 34.579045 -116.730846 230 22245ft 324kts
11-Oct-20 12:14 34.516543 -116.807265 230 20684ft 316kts
11-Oct-20 12:15 34.452449 -116.885490 229 18684ft 338kts
11-Oct-20 12:16 34.386410 -116.965898 229 16308ft 332kts
11-Oct-20 12:17 34.322835 -117.043083 227 13134ft 318kts
11-Oct-20 12:18 34.262836 -117.112289 208 13001ft 302kts
11-Oct-20 12:19 34.180176 -117.125809 188 13042ft 297kts
11-Oct-20 12:20 34.098290 -117.137863 188 13008ft 297kts
11-Oct-20 12:21 34.017178 -117.149870 188 12251ft 281kts
11-Oct-20 12:22 33.941000 -117.161119 187 10761ft 274kts
11-Oct-20 12:23 33.866250 -117.172147 188 9271ft 268kts
11-Oct-20 12:24 33.795594 -117.182879 194 8016ft 252kts
11-Oct-20 12:25 33.776874 -117.255123 272 8036ft 251kts
11-Oct-20 12:26 33.778027 -117.338851 271 8033ft 248kts
11-Oct-20 12:27 33.778848 -117.421221 271 8032ft 244kts
11-Oct-20 12:28 33.779607 -117.502811 271 8029ft 243kts
11-Oct-20 12:29 33.796087 -117.580986 292 7058ft 236kts
11-Oct-20 12:30 33.818070 -117.648328 292 6556ft 210kts
11-Oct-20 12:31 33.846246 -117.704495 311 5158ft 189kts
11-Oct-20 12:32 33.872511 -117.755065 247 3969ft 172kts
11-Oct-20 12:33 33.826053 -117.773471 207 3341ft 203kts
11-Oct-20 12:34 33.779209 -117.803143 208 2251ft 181kts
11-Oct-20 12:35 33.739524 -117.828346 208 1363ft 145kts
11-Oct-20 12:36 33.707761 -117.848498 208 651ft 117kts
11-Oct-20 12:37 33.680317 -117.865908 207 71ft 101kts
11-Oct-20 12:38 33.669548 -117.872030 153 61ft 13kts
11-Oct-20 12:39 33.671125 -117.868852 40 61ft 11kts
11-Oct-20 12:40 33.671520 -117.867773 26 61ft 0kts
11-Oct-20 12:41 33.671520 -117.867773 26 61ft 0kts
11-Oct-20 12:42 33.671520 -117.867773 26 61ft 0kts
11-Oct-20 12:43 33.671520 -117.867773 26 61ft 0kts
11-Oct-20 12:44 33.671520 -117.867773 26 61ft 0kts
11-Oct-20 12:45 33.671520 -117.867773 26 61ft 0kts
11-Oct-20 12:46 33.671520 -117.867773 26 61ft 0kts
11-Oct-20 12:47 33.671520 -117.867773 26 61ft 0kts
11-Oct-20 12:48 33.671520 -117.867773 26 61ft 0kts
11-Oct-20 12:49 33.671520 -117.867773 26 61ft 0kts
11-Oct-20 12:50 33.671520 -117.867773 26 61ft 0kts
11-Oct-20 12:51 33.671520 -117.867773 26 61ft 0kts

Navigation Log

Ident Type
Flight plan parsing failed, navigation log unavailable